createdAt,value
2022-10-03T00:05:02.400Z,102647.47
2022-10-03T00:10:06.146Z,102651.53
2022-10-03T00:15:04.530Z,102650.44
2022-10-03T00:20:03.866Z,102646.69
2022-10-03T00:25:07.629Z,102661.44
2022-10-03T00:30:07.996Z,102665.59
2022-10-03T00:35:09.741Z,102665.59
2022-10-03T00:40:37.881Z,102667.31
2022-10-03T00:45:51.387Z,102679.25
2022-10-03T00:51:19.427Z,102690.41
2022-10-03T00:56:35.384Z,102694.59
2022-10-03T01:01:39.947Z,102700.56
2022-10-03T01:06:40.364Z,102694.34
2022-10-03T01:11:42.697Z,102701.97
2022-10-03T01:16:47.810Z,102697.31
2022-10-03T01:21:49.196Z,102713.88
2022-10-03T01:26:57.408Z,102709.31
2022-10-03T01:31:57.051Z,102710.94
2022-10-03T01:37:02.451Z,102709.19
2022-10-03T01:42:00.842Z,102711.56
2022-10-03T01:46:58.955Z,102722.56
2022-10-03T01:51:58.119Z,102720.88
2022-10-03T01:56:58.569Z,102717.25
2022-10-03T02:01:56.532Z,102717.19
2022-10-03T02:06:58.293Z,102716.13
2022-10-03T02:12:03.299Z,102723.69
2022-10-03T02:17:06.186Z,102721.09
2022-10-03T02:21:58.028Z,102720.06
2022-10-03T02:27:15.681Z,102719.97
2022-10-03T02:32:39.669Z,102712.94
2022-10-03T02:37:59.431Z,102711.34
2022-10-03T02:43:16.429Z,102700.00
2022-10-03T02:48:31.202Z,102716.44
2022-10-03T02:53:51.311Z,102719.84
2022-10-03T02:59:06.917Z,102719.97
2022-10-03T03:04:25.212Z,102724.19
2022-10-03T03:09:45.880Z,102705.66
2022-10-03T03:15:10.876Z,102720.47
2022-10-03T03:20:20.824Z,102723.06
2022-10-03T03:25:24.701Z,102715.00
2022-10-03T03:30:21.220Z,102721.94
2022-10-03T03:35:19.739Z,102723.41
2022-10-03T03:40:34.030Z,102736.28
2022-10-03T03:45:37.350Z,102736.19
2022-10-03T03:50:43.497Z,102741.22
2022-10-03T03:55:53.267Z,102734.25
2022-10-03T04:01:08.587Z,102737.41
2022-10-03T04:06:19.362Z,102745.16
2022-10-03T04:11:21.289Z,102738.16
2022-10-03T04:16:51.284Z,102741.69
2022-10-03T04:22:09.670Z,102735.34
2022-10-03T04:27:28.104Z,102738.06
2022-10-03T04:32:45.426Z,102739.72
2022-10-03T04:37:44.690Z,102746.28
2022-10-03T04:42:48.414Z,102737.63
2022-10-03T04:47:48.429Z,102746.06
2022-10-03T04:52:42.075Z,102751.72
2022-10-03T04:57:34.504Z,102763.66
2022-10-03T05:02:46.223Z,102754.16
2022-10-03T05:07:42.597Z,102755.03
2022-10-03T05:12:35.149Z,102750.06
2022-10-03T05:17:28.119Z,102757.22
2022-10-03T05:22:25.376Z,102763.59
2022-10-03T05:27:18.087Z,102768.97
2022-10-03T05:32:16.639Z,102767.47
2022-10-03T05:37:20.832Z,102769.31
2022-10-03T05:42:25.071Z,102775.59
2022-10-03T05:47:37.709Z,102768.00
2022-10-03T05:52:43.984Z,102772.34
2022-10-03T05:57:53.044Z,102784.44
2022-10-03T06:02:57.847Z,102775.78
2022-10-03T06:07:59.381Z,102780.00
2022-10-03T06:12:54.321Z,102785.09
2022-10-03T06:17:58.577Z,102783.28
2022-10-03T06:23:06.374Z,102784.88
2022-10-03T06:28:19.356Z,102782.97
2022-10-03T06:33:28.941Z,102789.69
2022-10-03T06:38:35.087Z,102799.91
2022-10-03T06:43:40.524Z,102796.44
2022-10-03T06:48:47.659Z,102801.56
2022-10-03T06:53:52.308Z,102807.59
2022-10-03T06:59:05.477Z,102812.91
2022-10-03T07:04:12.758Z,102815.81
2022-10-03T07:09:27.292Z,102819.09
2022-10-03T07:14:37.538Z,102818.25
2022-10-03T07:19:47.835Z,102825.88
2022-10-03T07:24:57.327Z,102835.25
2022-10-03T07:30:06.013Z,102837.50
2022-10-03T07:35:20.128Z,102840.63
2022-10-03T07:40:27.980Z,102842.78
2022-10-03T07:45:34.658Z,102845.75
2022-10-03T07:50:46.625Z,102844.38
2022-10-03T07:56:08.609Z,102844.03
2022-10-03T08:01:10.381Z,102838.38
2022-10-03T08:06:16.992Z,102844.19
2022-10-03T08:11:14.820Z,102837.09
2022-10-03T08:16:22.622Z,102848.16
2022-10-03T08:21:13.224Z,102858.09
2022-10-03T08:26:12.293Z,102850.75
2022-10-03T08:31:16.416Z,102859.78
2022-10-03T08:36:42.690Z,102859.19
2022-10-03T08:41:58.135Z,102860.50
2022-10-03T08:47:04.314Z,102868.63
2022-10-03T08:52:02.138Z,102870.75
2022-10-03T08:57:00.668Z,102866.75
2022-10-03T09:02:09.927Z,102861.28
2022-10-03T09:07:19.319Z,102858.22
2022-10-03T09:12:25.745Z,102861.38
2022-10-03T09:17:28.816Z,102859.88
2022-10-03T09:22:23.194Z,102859.19
2022-10-03T09:27:28.443Z,102849.78
2022-10-03T09:32:43.044Z,102849.22
2022-10-03T09:37:56.282Z,102838.97
2022-10-03T09:42:57.169Z,102846.16
2022-10-03T09:48:02.318Z,102838.50
2022-10-03T09:53:07.078Z,102853.38
2022-10-03T09:58:25.841Z,102857.28
2022-10-03T10:03:36.805Z,102850.84
2022-10-03T10:08:37.820Z,102847.66
2022-10-03T10:14:06.703Z,102847.13
2022-10-03T10:19:07.566Z,102837.78
2022-10-03T10:24:04.339Z,102844.06
2022-10-03T10:29:24.323Z,102845.94
2022-10-03T10:34:57.995Z,102855.91
2022-10-03T10:40:29.687Z,102850.13
2022-10-03T10:45:49.642Z,102842.34
2022-10-03T10:51:12.136Z,102829.13
2022-10-03T10:56:40.199Z,102833.34
2022-10-03T11:02:16.591Z,102827.03
2022-10-03T11:07:45.743Z,102837.38
2022-10-03T11:13:17.934Z,102831.97
2022-10-03T11:18:41.562Z,102831.03
2022-10-03T11:24:14.787Z,102822.22
2022-10-03T11:29:43.996Z,102837.88
2022-10-03T11:35:21.244Z,102840.47
2022-10-03T11:40:39.781Z,102825.53
2022-10-03T11:45:35.603Z,102818.50
2022-10-03T11:50:44.996Z,102835.00
2022-10-03T11:55:44.217Z,102836.66
2022-10-03T12:00:39.391Z,102828.75
2022-10-03T12:05:46.286Z,102827.97
2022-10-03T12:10:57.073Z,102824.50
2022-10-03T12:15:51.883Z,102819.34
2022-10-03T12:21:07.095Z,102819.38
2022-10-03T12:26:03.245Z,102822.06
2022-10-03T12:30:58.071Z,102815.13
2022-10-03T12:35:54.105Z,102802.13
2022-10-03T12:40:50.082Z,102801.34
2022-10-03T12:45:46.080Z,102794.47
2022-10-03T12:50:48.833Z,102805.00
2022-10-03T12:55:42.177Z,102790.28
2022-10-03T13:00:41.687Z,102799.88
2022-10-03T13:06:07.852Z,102794.72
2022-10-03T13:11:02.781Z,102789.47
2022-10-03T13:16:21.372Z,102800.78
2022-10-03T13:21:44.370Z,102786.81
2022-10-03T13:26:46.082Z,102791.22
2022-10-03T13:31:41.710Z,102786.81
2022-10-03T13:36:41.829Z,102787.69
2022-10-03T13:41:45.265Z,102779.84
2022-10-03T13:46:48.972Z,102776.44
2022-10-03T13:51:50.306Z,102775.63
2022-10-03T13:56:56.591Z,102766.94
2022-10-03T14:01:59.643Z,102759.97
2022-10-03T14:06:59.306Z,102744.34
2022-10-03T14:11:56.260Z,102740.88
2022-10-03T14:16:54.535Z,102739.22
2022-10-03T14:22:09.257Z,102731.41
2022-10-03T14:27:05.558Z,102733.19
2022-10-03T14:32:01.370Z,102734.13
2022-10-03T14:37:00.907Z,102722.00
2022-10-03T14:42:19.938Z,102717.69
2022-10-03T14:47:12.852Z,102711.56
2022-10-03T14:52:08.979Z,102712.50
2022-10-03T14:57:02.609Z,102700.25
2022-10-03T15:01:55.222Z,102700.31
2022-10-03T15:06:57.442Z,102690.84
2022-10-03T15:11:52.411Z,102679.59
2022-10-03T15:16:50.441Z,102672.75
2022-10-03T15:21:45.271Z,102671.03
2022-10-03T15:26:37.634Z,102659.72
2022-10-03T15:31:35.669Z,102655.28
2022-10-03T15:36:31.348Z,102662.22
2022-10-03T15:41:30.196Z,102662.97
2022-10-03T15:46:34.985Z,102655.94
2022-10-03T15:51:31.434Z,102649.75
2022-10-03T15:56:28.668Z,102653.19
2022-10-03T16:01:24.980Z,102659.28
2022-10-03T16:06:26.493Z,102644.44
2022-10-03T16:11:25.391Z,102633.97
2022-10-03T16:16:31.155Z,102629.59
2022-10-03T16:21:57.817Z,102634.81
2022-10-03T16:26:59.265Z,102631.28
2022-10-03T16:31:57.732Z,102631.22
2022-10-03T16:36:53.425Z,102625.03
2022-10-03T16:41:49.074Z,102609.28
2022-10-03T16:46:47.217Z,102621.47
2022-10-03T16:51:45.914Z,102600.47
2022-10-03T16:56:44.520Z,102602.13
2022-10-03T17:01:40.223Z,102599.44
2022-10-03T17:06:37.546Z,102603.75
2022-10-03T17:11:40.492Z,102582.72
2022-10-03T17:16:40.189Z,102592.25
2022-10-03T17:21:39.739Z,102600.03
2022-10-03T17:26:39.517Z,102603.34
2022-10-03T17:31:35.184Z,102601.44
2022-10-03T17:37:11.170Z,102608.31
2022-10-03T17:42:10.563Z,102606.50
2022-10-03T17:47:09.458Z,102614.22
2022-10-03T17:52:09.050Z,102600.19
2022-10-03T17:57:11.457Z,102588.81
2022-10-03T18:02:09.585Z,102591.41
2022-10-03T18:07:09.090Z,102592.09
2022-10-03T18:12:15.455Z,102578.97
2022-10-03T18:17:15.271Z,102585.84
2022-10-03T18:22:19.197Z,102585.66
2022-10-03T18:27:40.579Z,102569.00
2022-10-03T18:32:32.685Z,102565.41
2022-10-03T18:37:53.093Z,102580.22
2022-10-03T18:42:50.394Z,102573.22
2022-10-03T18:47:44.272Z,102559.19
2022-10-03T18:52:43.855Z,102556.63
2022-10-03T18:57:41.142Z,102554.03
2022-10-03T19:02:39.686Z,102548.78
2022-10-03T19:07:32.991Z,102557.47
2022-10-03T19:12:25.788Z,102544.38
2022-10-03T19:17:31.659Z,102549.56
2022-10-03T19:22:31.427Z,102541.75
2022-10-03T19:27:24.733Z,102541.69
2022-10-03T19:32:21.944Z,102531.28
2022-10-03T19:37:19.092Z,102530.47
2022-10-03T19:42:30.506Z,102533.91
2022-10-03T19:47:24.978Z,102535.59
2022-10-03T19:52:27.175Z,102539.97
2022-10-03T19:57:22.982Z,102546.03
2022-10-03T20:02:14.487Z,102539.94
2022-10-03T20:07:12.872Z,102545.97
2022-10-03T20:12:06.890Z,102560.72
2022-10-03T20:17:06.116Z,102543.34
2022-10-03T20:21:58.199Z,102538.97
2022-10-03T20:26:56.864Z,102544.09
2022-10-03T20:31:47.593Z,102545.81
2022-10-03T20:36:43.192Z,102545.81
2022-10-03T20:41:42.462Z,102544.88
2022-10-03T20:46:40.742Z,102556.19
2022-10-03T20:51:44.533Z,102553.56
2022-10-03T20:56:46.775Z,102537.94
2022-10-03T21:01:40.418Z,102543.09
2022-10-03T21:06:37.218Z,102533.47
2022-10-03T21:11:31.975Z,102536.81
2022-10-03T21:16:25.193Z,102536.72
2022-10-03T21:21:22.707Z,102527.88
2022-10-03T21:26:13.854Z,102527.81
2022-10-03T21:31:40.200Z,102525.13
2022-10-03T21:36:40.442Z,102525.00
2022-10-03T21:41:40.106Z,102521.41
2022-10-03T21:46:40.257Z,102500.47
2022-10-03T21:51:33.578Z,102507.44
2022-10-03T21:56:51.035Z,102509.97
2022-10-03T22:01:49.347Z,102490.91
2022-10-03T22:06:46.692Z,102478.75
2022-10-03T22:11:43.397Z,102446.59
2022-10-03T22:16:41.432Z,102471.81
2022-10-03T22:21:41.710Z,102444.88
2022-10-03T22:26:39.517Z,102457.09
2022-10-03T22:31:37.010Z,102450.94
2022-10-03T22:36:27.452Z,102449.25
2022-10-03T22:41:29.987Z,102455.28
2022-10-03T22:46:27.023Z,102439.63
2022-10-03T22:51:18.977Z,102425.81
2022-10-03T22:56:44.596Z,102439.69
2022-10-03T23:01:36.020Z,102437.88
2022-10-03T23:06:46.414Z,102441.44
2022-10-03T23:11:38.037Z,102440.44
2022-10-03T23:16:51.365Z,102443.09
2022-10-03T23:21:47.735Z,102451.72
2022-10-03T23:27:14.972Z,102447.34
2022-10-03T23:32:09.267Z,102436.84
2022-10-03T23:37:03.115Z,102436.88
2022-10-03T23:42:02.664Z,102422.03
2022-10-03T23:46:52.559Z,102415.09
2022-10-03T23:51:45.478Z,102416.59
2022-10-03T23:56:40.892Z,102425.25
